Terminal Aerodrome Forecast
Issued by NWS

Home | Current Version | Previous Version | Text Only | Print | Product List | Glossary On
Versions: 1 2 3 4 5 6 7 8 9 10 11 12 13 14 15 16 17 18 19 20
000
FTUS43 KJKL 300544
TAFSJS
TAF
KSJS 300544Z 3006/3106 00000KT P6SM SCT060
     FM300900 19003KT 1SM BR VV002
     FM301300 19004KT P6SM SCT040 SCT080
     FM301800 20007KT P6SM VCTS BKN045CB
     FM310200 00000KT P6SM FEW045=

USA.gov is the U.S. government's official web portal to all federal, state and local government web resources and services.